createdAt,value
2022-07-29T00:02:28.821Z,21.06
2022-07-29T00:05:32.257Z,20.92
2022-07-29T00:08:37.396Z,21.32
2022-07-29T00:11:40.708Z,21.37
2022-07-29T00:14:44.120Z,20.67
2022-07-29T00:17:47.682Z,21.44
2022-07-29T00:20:51.135Z,20.92
2022-07-29T00:23:55.865Z,20.83
2022-07-29T00:26:59.053Z,21.13
2022-07-29T00:30:02.346Z,20.79
2022-07-29T00:33:09.110Z,21.05
2022-07-29T00:36:11.592Z,20.96
2022-07-29T00:39:16.198Z,20.78
2022-07-29T00:42:19.752Z,20.51
2022-07-29T00:45:23.947Z,20.52
2022-07-29T00:48:27.257Z,20.44
2022-07-29T00:51:31.846Z,20.38
2022-07-29T00:54:43.851Z,20.52
2022-07-29T00:57:47.800Z,20.55
2022-07-29T01:00:51.211Z,20.64
2022-07-29T01:03:55.067Z,20.50
2022-07-29T01:06:58.457Z,20.31
2022-07-29T01:10:06.210Z,20.29
2022-07-29T01:13:11.092Z,20.02
2022-07-29T01:16:19.988Z,20.14
2022-07-29T01:19:44.444Z,20.11
2022-07-29T01:23:23.814Z,20.23
2022-07-29T01:26:39.514Z,19.83
2022-07-29T01:29:51.358Z,19.85
2022-07-29T01:33:02.185Z,19.75
2022-07-29T01:36:12.617Z,19.88
2022-07-29T01:39:21.434Z,19.78
2022-07-29T01:42:31.702Z,19.60
2022-07-29T01:45:42.400Z,19.52
2022-07-29T01:48:49.585Z,19.35
2022-07-29T01:51:56.921Z,19.23
2022-07-29T01:55:04.588Z,19.21
2022-07-29T01:58:09.659Z,19.13
2022-07-29T02:01:15.975Z,19.38
2022-07-29T02:04:28.988Z,19.43
2022-07-29T02:07:35.385Z,19.35
2022-07-29T02:10:41.221Z,20.22
2022-07-29T02:13:46.408Z,19.65
2022-07-29T02:16:54.552Z,19.48
2022-07-29T02:20:02.069Z,19.45
2022-07-29T02:23:06.208Z,19.33
2022-07-29T02:26:11.206Z,19.15
2022-07-29T02:29:15.836Z,19.23
2022-07-29T02:32:33.417Z,19.06
2022-07-29T02:35:37.343Z,19.07
2022-07-29T02:38:53.136Z,19.20
2022-07-29T02:42:01.274Z,19.04
2022-07-29T02:45:04.978Z,19.20
2022-07-29T02:48:15.219Z,18.90
2022-07-29T02:51:43.722Z,18.81
2022-07-29T02:54:53.755Z,19.11
2022-07-29T02:58:02.765Z,18.75
2022-07-29T03:01:15.719Z,19.00
2022-07-29T03:04:27.101Z,18.74
2022-07-29T03:07:30.808Z,18.75
2022-07-29T03:10:34.817Z,18.74
2022-07-29T03:13:39.224Z,18.69
2022-07-29T03:16:43.586Z,18.57
2022-07-29T03:19:48.723Z,18.81
2022-07-29T03:22:52.888Z,18.69
2022-07-29T03:25:57.098Z,18.72
2022-07-29T03:29:00.502Z,18.70
2022-07-29T03:34:45.700Z,18.59
2022-07-29T03:37:51.659Z,18.67
2022-07-29T03:40:58.675Z,18.76
2022-07-29T03:44:02.742Z,18.73
2022-07-29T03:47:08.596Z,18.82
2022-07-29T03:50:16.775Z,19.77
2022-07-29T03:53:20.380Z,18.83
2022-07-29T03:56:25.449Z,18.69
2022-07-29T03:59:29.723Z,18.79
2022-07-29T04:02:34.472Z,18.48
2022-07-29T04:05:39.296Z,18.45
2022-07-29T04:08:42.593Z,18.50
2022-07-29T04:12:02.891Z,18.33
2022-07-29T04:15:07.948Z,18.27
2022-07-29T04:18:11.164Z,18.18
2022-07-29T04:21:18.524Z,18.25
2022-07-29T04:24:22.071Z,18.22
2022-07-29T04:27:25.664Z,18.27
2022-07-29T04:30:29.466Z,18.32
2022-07-29T04:33:32.741Z,18.08
2022-07-29T04:36:37.384Z,18.16
2022-07-29T04:39:40.721Z,18.03
2022-07-29T04:42:46.562Z,18.65
2022-07-29T04:45:50.749Z,18.18
2022-07-29T04:48:54.064Z,17.95
2022-07-29T04:51:59.010Z,17.92
2022-07-29T04:55:02.300Z,18.17
2022-07-29T04:58:05.676Z,18.17
2022-07-29T05:01:09.516Z,18.15
2022-07-29T05:04:13.089Z,18.35
2022-07-29T05:07:17.966Z,19.06
2022-07-29T05:10:21.305Z,19.02
2022-07-29T05:13:24.557Z,18.57
2022-07-29T05:16:27.965Z,18.77
2022-07-29T05:19:31.271Z,19.34
2022-07-29T05:22:35.967Z,19.70
2022-07-29T05:25:43.551Z,19.88
2022-07-29T05:28:48.052Z,19.85
2022-07-29T05:31:52.820Z,19.92
2022-07-29T05:34:56.329Z,20.06
2022-07-29T05:38:01.043Z,20.58
2022-07-29T05:41:04.955Z,20.29
2022-07-29T05:44:08.450Z,20.15
2022-07-29T05:47:13.571Z,20.43
2022-07-29T05:50:44.228Z,20.53
2022-07-29T05:53:52.785Z,20.63
2022-07-29T05:56:56.046Z,20.84
2022-07-29T05:59:59.684Z,20.83
2022-07-29T06:03:05.593Z,21.14
2022-07-29T06:06:09.700Z,21.14
2022-07-29T06:09:14.843Z,21.38
2022-07-29T06:12:18.357Z,22.09
2022-07-29T06:15:21.645Z,21.76
2022-07-29T06:18:25.732Z,22.05
2022-07-29T06:21:28.927Z,22.81
2022-07-29T06:24:33.607Z,23.28
2022-07-29T06:27:36.830Z,22.98
2022-07-29T06:30:40.287Z,23.04
2022-07-29T06:33:43.897Z,22.81
2022-07-29T06:36:47.200Z,22.49
2022-07-29T06:40:13.127Z,23.12
2022-07-29T06:43:16.609Z,22.99
2022-07-29T06:46:21.887Z,22.57
2022-07-29T06:49:27.073Z,23.39
2022-07-29T06:52:30.366Z,23.24
2022-07-29T06:55:37.918Z,23.55
2022-07-29T06:58:41.166Z,23.72
2022-07-29T07:01:47.481Z,24.26
2022-07-29T07:04:50.936Z,24.13
2022-07-29T07:07:54.127Z,24.21
2022-07-29T07:11:00.092Z,24.42
2022-07-29T07:14:04.270Z,23.91
2022-07-29T07:17:08.085Z,23.82
2022-07-29T07:20:12.346Z,24.20
2022-07-29T07:23:16.396Z,24.64
2022-07-29T07:26:21.139Z,24.86
2022-07-29T07:29:24.361Z,24.61
2022-07-29T07:32:27.569Z,24.51
2022-07-29T07:35:31.113Z,24.19
2022-07-29T07:38:34.404Z,25.01
2022-07-29T07:41:39.064Z,25.90
2022-07-29T07:45:03.673Z,26.29
2022-07-29T07:48:06.766Z,26.07
2022-07-29T07:51:10.232Z,25.15
2022-07-29T07:54:13.790Z,25.01
2022-07-29T07:57:18.641Z,24.69
2022-07-29T08:00:23.737Z,24.14
2022-07-29T08:03:27.347Z,24.75
2022-07-29T08:06:30.584Z,25.07
2022-07-29T08:09:35.291Z,25.09
2022-07-29T08:12:39.922Z,24.68
2022-07-29T08:15:44.152Z,24.63
2022-07-29T08:18:48.103Z,23.94
2022-07-29T08:21:53.692Z,24.24
2022-07-29T08:24:57.232Z,24.23
2022-07-29T08:28:01.831Z,24.64
2022-07-29T08:31:05.167Z,24.70
2022-07-29T08:34:08.741Z,25.09
2022-07-29T08:37:12.337Z,25.83
2022-07-29T08:40:16.208Z,25.55
2022-07-29T08:43:22.926Z,25.15
2022-07-29T08:46:26.934Z,25.80
2022-07-29T08:49:30.651Z,25.71
2022-07-29T08:52:37.876Z,25.52
2022-07-29T08:55:42.579Z,25.83
2022-07-29T08:58:52.030Z,26.40
2022-07-29T09:01:56.771Z,26.25
2022-07-29T09:05:02.523Z,26.36
2022-07-29T09:08:06.818Z,26.30
2022-07-29T09:11:10.961Z,26.85
2022-07-29T09:14:16.186Z,26.84
2022-07-29T09:17:20.899Z,26.30
2022-07-29T09:20:24.976Z,27.54
2022-07-29T09:23:28.242Z,26.67
2022-07-29T09:26:32.229Z,26.19
2022-07-29T09:29:37.957Z,26.62
2022-07-29T09:34:45.704Z,26.72
2022-07-29T09:37:53.047Z,27.22
2022-07-29T09:41:04.573Z,27.12
2022-07-29T09:44:09.628Z,26.98
2022-07-29T09:47:12.936Z,26.64
2022-07-29T09:50:20.736Z,26.76
2022-07-29T09:53:34.438Z,26.92
2022-07-29T09:56:41.517Z,27.37
2022-07-29T09:59:58.063Z,26.94
2022-07-29T10:03:03.762Z,27.44
2022-07-29T10:06:10.435Z,27.65
2022-07-29T10:09:13.742Z,27.30
2022-07-29T10:12:16.960Z,26.65
2022-07-29T10:15:20.678Z,27.44
2022-07-29T10:18:24.108Z,27.67
2022-07-29T10:21:36.613Z,27.05
2022-07-29T10:24:41.566Z,27.96
2022-07-29T10:27:45.066Z,28.02
2022-07-29T10:30:51.488Z,27.98
2022-07-29T10:34:07.081Z,28.56
2022-07-29T10:37:26.307Z,27.94
2022-07-29T10:41:08.692Z,28.43
2022-07-29T10:44:19.532Z,27.77
2022-07-29T10:47:28.033Z,27.69
2022-07-29T10:50:54.496Z,28.21
2022-07-29T10:54:00.790Z,28.07
2022-07-29T10:57:16.601Z,27.74
2022-07-29T11:00:34.624Z,27.58
2022-07-29T11:03:53.727Z,28.11
2022-07-29T11:07:09.775Z,28.05
2022-07-29T11:10:30.970Z,27.52
2022-07-29T11:17:14.055Z,28.26
2022-07-29T11:20:38.273Z,28.13
2022-07-29T11:23:43.350Z,27.66
2022-07-29T11:31:00.238Z,28.22
2022-07-29T11:34:28.243Z,28.03
2022-07-29T11:37:32.922Z,27.94
2022-07-29T11:41:22.473Z,29.08
2022-07-29T11:44:57.232Z,28.65
2022-07-29T11:48:31.491Z,28.50
2022-07-29T11:51:33.115Z,29.08
2022-07-29T11:55:00.551Z,28.03
2022-07-29T11:58:04.676Z,28.30
2022-07-29T12:01:09.395Z,28.37
2022-07-29T12:04:12.708Z,27.80
2022-07-29T12:07:17.055Z,29.68
2022-07-29T12:10:30.434Z,29.56
2022-07-29T12:13:41.332Z,29.09
2022-07-29T12:16:45.929Z,28.63
2022-07-29T12:19:49.301Z,28.87
2022-07-29T12:22:55.639Z,29.03
2022-07-29T12:26:00.496Z,29.32
2022-07-29T12:29:04.268Z,29.37
2022-07-29T12:32:19.817Z,28.28
2022-07-29T12:35:23.598Z,28.82
2022-07-29T12:38:27.251Z,28.36
2022-07-29T12:41:33.988Z,28.33
2022-07-29T12:44:48.388Z,28.37
2022-07-29T12:47:56.199Z,28.80
2022-07-29T12:51:02.316Z,29.20
2022-07-29T12:54:08.898Z,28.64
2022-07-29T12:57:20.275Z,29.01
2022-07-29T13:00:25.878Z,29.02
2022-07-29T13:03:43.428Z,29.20
2022-07-29T13:07:04.860Z,28.78
2022-07-29T13:10:16.795Z,28.91
2022-07-29T13:13:21.503Z,29.48
2022-07-29T13:16:24.728Z,29.06
2022-07-29T13:19:38.454Z,29.11
2022-07-29T13:22:43.261Z,28.56
2022-07-29T13:25:46.907Z,28.29
2022-07-29T13:28:50.712Z,28.38
2022-07-29T13:31:54.025Z,28.08
2022-07-29T13:34:59.481Z,27.50
2022-07-29T13:38:02.676Z,27.46
2022-07-29T13:41:06.004Z,27.22
2022-07-29T13:44:09.529Z,27.08
2022-07-29T13:47:12.977Z,26.71
2022-07-29T13:50:17.777Z,26.33
2022-07-29T13:53:26.816Z,26.48
2022-07-29T13:56:30.592Z,26.10
2022-07-29T13:59:34.475Z,26.39
2022-07-29T14:02:39.316Z,26.00
2022-07-29T14:05:43.969Z,25.84
2022-07-29T14:08:47.332Z,25.43
2022-07-29T14:11:52.288Z,25.12
2022-07-29T14:14:55.921Z,24.37
2022-07-29T14:17:59.325Z,23.91
2022-07-29T14:21:04.108Z,23.69
2022-07-29T14:24:17.845Z,23.83
2022-07-29T14:27:37.368Z,24.40
2022-07-29T14:30:41.905Z,24.47
2022-07-29T14:33:46.266Z,24.42
2022-07-29T14:36:56.385Z,24.60
2022-07-29T14:40:02.698Z,24.81
2022-07-29T14:43:06.390Z,25.08
2022-07-29T14:46:10.258Z,25.17
2022-07-29T14:49:14.081Z,24.97
2022-07-29T14:52:18.868Z,24.99
2022-07-29T14:55:22.430Z,25.12
2022-07-29T14:58:25.850Z,25.28
2022-07-29T15:01:30.127Z,24.91
2022-07-29T15:04:33.477Z,25.17
2022-07-29T15:07:38.525Z,24.77
2022-07-29T15:10:41.806Z,24.62
2022-07-29T15:13:45.118Z,24.72
2022-07-29T15:16:48.677Z,24.62
2022-07-29T15:19:52.071Z,24.53
2022-07-29T15:22:57.456Z,24.62
2022-07-29T15:26:00.802Z,24.58
2022-07-29T15:29:04.154Z,24.63
2022-07-29T15:34:47.130Z,24.48
2022-07-29T15:37:50.339Z,24.63
2022-07-29T15:40:53.648Z,24.60
2022-07-29T15:43:56.930Z,24.20
2022-07-29T15:47:07.212Z,24.13
2022-07-29T15:50:15.803Z,24.03
2022-07-29T15:53:19.079Z,23.52
2022-07-29T15:56:22.866Z,23.33
2022-07-29T15:59:26.427Z,23.30
2022-07-29T16:02:29.631Z,22.79
2022-07-29T16:05:34.339Z,22.95
2022-07-29T16:08:44.950Z,22.73
2022-07-29T16:11:50.902Z,22.50
2022-07-29T16:14:54.550Z,22.61
2022-07-29T16:17:57.798Z,22.53
2022-07-29T16:21:02.384Z,22.30
2022-07-29T16:24:07.275Z,22.24
2022-07-29T16:27:10.627Z,21.92
2022-07-29T16:30:14.550Z,21.67
2022-07-29T16:33:17.841Z,21.36
2022-07-29T16:36:23.133Z,20.99
2022-07-29T16:39:26.362Z,20.94
2022-07-29T16:42:46.011Z,20.74
2022-07-29T16:45:50.080Z,20.43
2022-07-29T16:48:53.453Z,20.45
2022-07-29T16:51:58.922Z,20.29
2022-07-29T16:55:03.006Z,20.46
2022-07-29T16:58:06.373Z,19.97
2022-07-29T17:01:09.716Z,19.84
2022-07-29T17:04:14.964Z,19.77
2022-07-29T17:07:19.781Z,19.56
2022-07-29T17:10:23.480Z,19.59
2022-07-29T17:13:26.813Z,19.46
2022-07-29T17:16:32.905Z,19.56
2022-07-29T17:19:37.047Z,19.33
2022-07-29T17:22:43.026Z,19.40
2022-07-29T17:25:46.266Z,18.16
2022-07-29T17:28:49.583Z,19.50
2022-07-29T17:31:53.179Z,19.28
2022-07-29T17:34:56.822Z,19.36
2022-07-29T17:38:01.432Z,19.38
2022-07-29T17:41:09.382Z,19.20
2022-07-29T17:44:14.643Z,19.39
2022-07-29T17:47:18.009Z,19.19
2022-07-29T17:50:21.343Z,19.26
2022-07-29T17:53:25.986Z,18.80
2022-07-29T17:56:30.320Z,19.28
2022-07-29T17:59:33.648Z,19.32
2022-07-29T18:02:37.560Z,19.42
2022-07-29T18:05:41.521Z,19.29
2022-07-29T18:08:47.546Z,19.22
2022-07-29T18:11:50.932Z,19.19
2022-07-29T18:14:54.496Z,19.21
2022-07-29T18:17:58.148Z,19.18
2022-07-29T18:21:01.659Z,19.23
2022-07-29T18:24:07.178Z,19.50
2022-07-29T18:27:10.678Z,19.24
2022-07-29T18:30:14.982Z,19.18
2022-07-29T18:33:21.608Z,19.21
2022-07-29T18:36:25.452Z,19.26
2022-07-29T18:39:30.203Z,19.05
2022-07-29T18:42:34.015Z,19.29
2022-07-29T18:45:37.607Z,19.15
2022-07-29T18:48:43.241Z,18.94
2022-07-29T18:51:46.713Z,18.88
2022-07-29T18:54:51.478Z,18.75
2022-07-29T18:57:57.210Z,19.13
2022-07-29T19:01:01.867Z,18.96
2022-07-29T19:04:06.176Z,18.88
2022-07-29T19:07:09.513Z,19.10
2022-07-29T19:10:14.531Z,18.91
2022-07-29T19:13:18.063Z,18.78
2022-07-29T19:16:21.391Z,18.85
2022-07-29T19:19:25.378Z,18.78
2022-07-29T19:22:28.612Z,18.69
2022-07-29T19:25:35.692Z,18.70
2022-07-29T19:28:39.329Z,18.44
2022-07-29T19:31:43.065Z,18.67
2022-07-29T19:35:06.376Z,18.66
2022-07-29T19:38:09.568Z,18.40
2022-07-29T19:41:15.792Z,18.50
2022-07-29T19:44:19.245Z,18.51
2022-07-29T19:47:22.737Z,18.60
2022-07-29T19:50:26.646Z,18.50
2022-07-29T19:53:30.046Z,18.59
2022-07-29T19:56:34.658Z,18.66
2022-07-29T19:59:42.126Z,18.96
2022-07-29T20:02:48.110Z,18.76
2022-07-29T20:05:52.805Z,18.86
2022-07-29T20:08:58.773Z,18.65
2022-07-29T20:12:04.698Z,18.72
2022-07-29T20:15:10.192Z,18.69
2022-07-29T20:18:20.086Z,18.65
2022-07-29T20:21:23.289Z,18.82
2022-07-29T20:24:26.629Z,18.84
2022-07-29T20:27:31.753Z,18.74
2022-07-29T20:30:35.048Z,18.64
2022-07-29T20:33:41.939Z,18.52
2022-07-29T20:36:46.023Z,18.70
2022-07-29T20:39:49.208Z,18.83
2022-07-29T20:42:53.893Z,18.72
2022-07-29T20:45:57.527Z,18.65
2022-07-29T20:49:00.835Z,18.66
2022-07-29T20:52:04.256Z,18.48
2022-07-29T20:55:31.927Z,18.66
2022-07-29T20:58:36.803Z,18.73
2022-07-29T21:01:39.993Z,18.77
2022-07-29T21:04:43.711Z,18.77
2022-07-29T21:07:49.013Z,18.70
2022-07-29T21:10:52.762Z,18.72
2022-07-29T21:13:58.299Z,18.54
2022-07-29T21:17:02.057Z,18.66
2022-07-29T21:20:08.724Z,18.66
2022-07-29T21:23:12.224Z,18.83
2022-07-29T21:26:16.124Z,18.70
2022-07-29T21:29:19.761Z,18.54
2022-07-29T21:34:45.438Z,18.50
2022-07-29T21:37:48.846Z,18.35
2022-07-29T21:40:53.136Z,18.40
2022-07-29T21:43:58.201Z,18.52
2022-07-29T21:47:02.974Z,18.59
2022-07-29T21:50:09.055Z,18.59
2022-07-29T21:53:15.003Z,18.60
2022-07-29T21:56:19.264Z,18.66
2022-07-29T21:59:23.140Z,18.54
2022-07-29T22:02:26.529Z,18.51
2022-07-29T22:05:31.444Z,18.42
2022-07-29T22:08:34.718Z,18.39
2022-07-29T22:11:37.970Z,18.21
2022-07-29T22:14:46.948Z,18.27
2022-07-29T22:17:50.849Z,18.15
2022-07-29T22:20:55.492Z,18.37
2022-07-29T22:23:58.867Z,18.48
2022-07-29T22:27:02.446Z,18.43
2022-07-29T22:30:07.072Z,18.26
2022-07-29T22:33:17.514Z,18.22
2022-07-29T22:36:22.834Z,18.27
2022-07-29T22:39:26.130Z,18.12
2022-07-29T22:42:29.394Z,18.17
2022-07-29T22:45:32.824Z,18.27
2022-07-29T22:48:39.004Z,18.26
2022-07-29T22:51:43.715Z,18.21
2022-07-29T22:54:47.058Z,18.20
2022-07-29T22:57:50.394Z,18.05
2022-07-29T23:00:53.898Z,18.12
2022-07-29T23:03:57.534Z,18.17
2022-07-29T23:07:02.853Z,18.13
2022-07-29T23:10:07.200Z,17.96
2022-07-29T23:13:12.737Z,17.78
2022-07-29T23:16:15.965Z,17.92
2022-07-29T23:19:30.167Z,17.84
2022-07-29T23:22:34.920Z,17.91
2022-07-29T23:25:38.388Z,17.89
2022-07-29T23:28:43.074Z,17.84
2022-07-29T23:31:48.000Z,17.89
2022-07-29T23:34:53.956Z,17.82
2022-07-29T23:37:58.550Z,17.82
2022-07-29T23:41:02.510Z,17.64
2022-07-29T23:44:06.190Z,17.52
2022-07-29T23:47:09.660Z,17.64
2022-07-29T23:50:13.820Z,17.56
2022-07-29T23:53:18.503Z,17.49
2022-07-29T23:56:21.950Z,17.41
2022-07-29T23:59:25.713Z,17.34
